Time;durP1;ratioP1;P1;durP2;ratioP2;P2;SDS_P1;SDS_P2;PMS_P1;PMS_P2;Temp;Humidity;BMP_temperature;BMP_pressure;BME280_temperature;BME280_humidity;BME280_pressure;Samples;Min_cycle;Max_cycle;Signal;HPM_P1;HPM_P2
2024/04/11 00:01:18;;;;;;;4.07;2.67;;;6.50;99.90;;;;;;5485807;26;20266;-62
2024/04/11 00:03:47;;;;;;;4.63;2.63;;;6.50;99.90;;;;;;5484394;26;20719;-63
2024/04/11 00:06:13;;;;;;;3.03;2.33;;;6.50;99.90;;;;;;5485147;26;20250;-62
2024/04/11 00:08:42;;;;;;;2.97;2.83;;;6.50;99.90;;;;;;5483250;26;20287;-62
2024/04/11 00:11:08;;;;;;;2.27;2.17;;;6.50;99.90;;;;;;5488719;26;20264;-62
2024/04/11 00:13:37;;;;;;;2.73;2.17;;;6.50;99.90;;;;;;5470457;26;20228;-62
2024/04/11 00:16:06;;;;;;;2.50;2.10;;;6.40;99.90;;;;;;5488721;26;20239;-62
2024/04/11 00:18:34;;;;;;;5.10;2.63;;;6.40;99.90;;;;;;5485071;26;20347;-62
2024/04/11 00:21:00;;;;;;;3.73;2.70;;;6.40;99.90;;;;;;5487039;26;20229;-62
2024/04/11 00:23:29;;;;;;;5.83;2.80;;;6.40;99.90;;;;;;5485256;26;20282;-62
2024/04/11 00:25:56;;;;;;;3.37;2.70;;;6.40;99.90;;;;;;5488568;26;20570;-62
2024/04/11 00:28:25;;;;;;;3.33;3.00;;;6.40;99.90;;;;;;5488241;26;20277;-62
2024/04/11 00:30:51;;;;;;;2.30;2.10;;;6.40;99.90;;;;;;5487514;26;20240;-62
2024/04/11 00:33:23;;;;;;;5.10;1.90;;;6.40;99.90;;;;;;5485081;26;21586;-62
2024/04/11 00:35:49;;;;;;;2.20;2.07;;;6.30;99.90;;;;;;5488179;26;20226;-62
2024/04/11 00:38:20;;;;;;;3.87;2.27;;;6.30;99.90;;;;;;5488969;26;20317;-62
2024/04/11 00:40:53;;;;;;;2.60;2.40;;;6.30;99.90;;;;;;5489932;26;20218;-63
2024/04/11 00:43:22;;;;;;;5.37;3.23;;;6.20;99.90;;;;;;5489566;26;20640;-62
2024/04/11 00:45:48;;;;;;;2.03;1.67;;;6.30;99.90;;;;;;5475083;26;20274;-62
2024/04/11 00:48:17;;;;;;;2.60;2.13;;;6.30;99.90;;;;;;5473465;26;20277;-62
2024/04/11 00:50:46;;;;;;;3.50;2.63;;;6.20;99.90;;;;;;5489842;26;20251;-62
2024/04/11 00:53:16;;;;;;;2.53;2.43;;;6.50;99.90;;;;;;5489564;26;20217;-62
2024/04/11 00:55:42;;;;;;;2.30;2.10;;;6.50;99.90;;;;;;5489690;26;20759;-62
2024/04/11 00:58:11;;;;;;;2.03;1.93;;;6.30;99.90;;;;;;5471145;26;20282;-63
2024/04/11 01:00:38;;;;;;;2.70;2.50;;;6.20;99.90;;;;;;5480005;26;20273;-62
2024/04/11 01:03:07;;;;;;;2.30;2.10;;;6.20;99.90;;;;;;5489505;26;20219;-62
2024/04/11 01:05:34;;;;;;;3.27;1.97;;;6.20;99.90;;;;;;5491500;26;20220;-62
2024/04/11 01:08:09;;;;;;;4.07;2.00;;;6.30;99.90;;;;;;5488598;26;20707;-62
2024/04/11 01:10:37;;;;;;;3.87;2.70;;;6.30;99.90;;;;;;5485429;26;20231;-62
2024/04/11 01:13:07;;;;;;;4.03;1.93;;;6.10;99.90;;;;;;5488371;26;20271;-63
2024/04/11 01:15:34;;;;;;;2.00;1.90;;;6.10;99.90;;;;;;5489081;26;20315;-62
2024/04/11 01:18:03;;;;;;;2.63;2.43;;;6.10;99.90;;;;;;5480001;26;20239;-62
2024/04/11 01:20:29;;;;;;;2.10;2.00;;;6.10;99.90;;;;;;5489003;26;20273;-62
2024/04/11 01:23:03;;;;;;;4.33;2.10;;;6.10;99.90;;;;;;5478719;26;20287;-63
2024/04/11 01:25:29;;;;;;;1.20;1.20;;;6.30;99.90;;;;;;5489717;26;20274;-62
2024/04/11 01:28:00;;;;;;;5.30;1.40;;;6.30;99.90;;;;;;5489774;26;20299;-62
2024/04/11 01:30:28;;;;;;;1.93;1.60;;;6.40;99.90;;;;;;5489704;26;20265;-62
2024/04/11 01:33:00;;;;;;;1.47;0.87;;;6.30;99.90;;;;;;5489183;26;20257;-62
2024/04/11 01:35:28;;;;;;;2.17;1.13;;;6.20;99.90;;;;;;5482633;26;20230;-62
2024/04/11 01:37:57;;;;;;;2.57;1.40;;;6.10;99.90;;;;;;5487960;26;20332;-62
2024/04/11 01:40:29;;;;;;;3.40;1.37;;;6.00;99.90;;;;;;5489142;26;20573;-62
2024/04/11 01:43:00;;;;;;;1.17;1.07;;;6.00;99.90;;;;;;5488772;26;20343;-62
2024/04/11 01:45:26;;;;;;;5.07;1.53;;;6.00;99.90;;;;;;5488901;26;20292;-62
2024/04/11 01:47:55;;;;;;;4.63;0.90;;;5.90;99.90;;;;;;5471231;26;20284;-62
2024/04/11 01:50:21;;;;;;;1.23;0.87;;;5.90;99.90;;;;;;5488869;26;20265;-62
2024/04/11 01:52:50;;;;;;;1.13;1.03;;;5.80;99.90;;;;;;5488818;26;20223;-63
2024/04/11 01:55:16;;;;;;;1.63;1.10;;;5.80;99.90;;;;;;5489095;26;20235;-62
2024/04/11 01:57:48;;;;;;;2.43;1.43;;;5.70;99.90;;;;;;5476427;26;20232;-62
2024/04/11 02:00:14;;;;;;;1.43;1.00;;;5.80;99.90;;;;;;5454558;26;20274;-62
2024/04/11 02:02:44;;;;;;;1.90;1.40;;;5.80;99.90;;;;;;5470169;26;20303;-62
2024/04/11 02:05:11;;;;;;;1.93;1.33;;;5.80;99.90;;;;;;5488580;26;20269;-62
2024/04/11 02:07:40;;;;;;;1.73;1.63;;;5.70;99.90;;;;;;5488640;26;20252;-62
2024/04/11 02:10:06;;;;;;;3.77;2.07;;;5.80;99.90;;;;;;5487538;26;20213;-63
2024/04/11 02:12:37;;;;;;;3.70;1.50;;;5.80;99.90;;;;;;5483556;26;20273;-62
2024/04/11 02:15:06;;;;;;;2.77;1.23;;;5.80;99.90;;;;;;5484949;26;20292;-62
2024/04/11 02:17:36;;;;;;;2.03;1.50;;;5.80;99.90;;;;;;5488445;26;20249;-61
2024/04/11 02:20:10;;;;;;;4.10;1.50;;;5.70;99.90;;;;;;5487249;26;20259;-62
2024/04/11 02:22:39;;;;;;;1.47;1.37;;;5.80;99.90;;;;;;5488303;26;20591;-62
2024/04/11 02:25:07;;;;;;;4.90;1.87;;;5.70;99.90;;;;;;5480129;26;20285;-62
2024/04/11 02:27:36;;;;;;;2.50;1.27;;;5.80;99.90;;;;;;5477485;26;20327;-62
2024/04/11 02:30:09;;;;;;;3.03;1.27;;;5.80;99.90;;;;;;5487082;26;20226;-62
2024/04/11 02:32:41;;;;;;;1.80;1.27;;;5.80;99.90;;;;;;5487120;26;20219;-63
2024/04/11 02:35:09;;;;;;;4.67;2.73;;;5.70;99.90;;;;;;5488267;26;20343;-62
2024/04/11 02:37:38;;;;;;;3.47;2.00;;;5.70;99.90;;;;;;5476838;26;20244;-63
2024/04/11 02:40:07;;;;;;;3.07;1.63;;;5.70;99.90;;;;;;5483519;26;20228;-62
2024/04/11 02:42:37;;;;;;;2.10;1.70;;;5.60;99.90;;;;;;5487977;26;20250;-62
2024/04/11 02:45:07;;;;;;;1.67;1.57;;;5.60;99.90;;;;;;5487997;26;20726;-63
2024/04/11 02:47:37;;;;;;;2.03;1.93;;;5.70;99.90;;;;;;5488088;26;20275;-62
2024/04/11 02:50:04;;;;;;;3.47;2.43;;;5.50;99.90;;;;;;5480450;26;20763;-62
2024/04/11 02:52:34;;;;;;;2.07;1.97;;;5.50;99.90;;;;;;5476449;26;20326;-62
2024/04/11 02:55:00;;;;;;;2.77;2.20;;;5.40;99.90;;;;;;5487890;26;20232;-62
2024/04/11 02:57:31;;;;;;;3.67;2.37;;;5.30;99.90;;;;;;5487599;26;20257;-62
2024/04/11 02:59:57;;;;;;;2.27;1.83;;;5.30;99.90;;;;;;5486933;26;20250;-62
2024/04/11 03:02:29;;;;;;;1.97;1.87;;;5.30;99.90;;;;;;5487000;26;20283;-63
2024/04/11 03:04:56;;;;;;;2.60;1.97;;;5.30;99.90;;;;;;5471810;26;20365;-62
2024/04/11 03:07:27;;;;;;;4.63;2.43;;;5.30;99.90;;;;;;5487595;26;20231;-62
2024/04/11 03:09:54;;;;;;;2.40;2.20;;;5.20;99.90;;;;;;5486554;26;20562;-62
2024/04/11 03:12:23;;;;;;;3.30;2.03;;;5.30;99.90;;;;;;5487577;26;20901;-62
2024/04/11 03:14:49;;;;;;;2.00;1.90;;;5.30;99.90;;;;;;5483056;26;20762;-62
2024/04/11 03:17:18;;;;;;;2.80;2.60;;;5.30;99.90;;;;;;5473241;26;20280;-62
2024/04/11 03:19:47;;;;;;;2.73;2.27;;;5.30;99.90;;;;;;5483421;26;20564;-62
2024/04/11 03:22:16;;;;;;;5.70;5.13;;;5.30;99.90;;;;;;5487395;26;20598;-62
2024/04/11 03:24:42;;;;;;;8.33;7.53;;;5.30;99.90;;;;;;5487052;26;20227;-62
2024/04/11 03:27:10;;;;;;;9.40;6.30;;;5.30;99.90;;;;;;5487234;26;20226;-63
2024/04/11 03:29:36;;;;;;;4.30;4.00;;;5.40;99.90;;;;;;5466079;26;20762;-63
2024/04/11 03:32:07;;;;;;;4.07;3.20;;;5.40;99.90;;;;;;5487025;26;20274;-62
2024/04/11 03:34:33;;;;;;;3.10;2.47;;;5.40;99.90;;;;;;5487037;26;20230;-62
2024/04/11 03:37:04;;;;;;;2.20;2.10;;;5.40;99.90;;;;;;5482473;26;20280;-62
2024/04/11 03:39:30;;;;;;;2.27;2.17;;;5.30;99.90;;;;;;5485893;26;20371;-62
2024/04/11 03:41:59;;;;;;;2.63;2.43;;;5.20;99.90;;;;;;5475736;26;20234;-62
2024/04/11 03:44:28;;;;;;;3.30;2.67;;;5.20;99.90;;;;;;5490319;26;20236;-62
2024/04/11 03:46:58;;;;;;;2.83;1.93;;;5.20;99.90;;;;;;5490571;26;20216;-62
2024/04/11 03:49:26;;;;;;;2.20;2.10;;;5.20;99.90;;;;;;5454857;26;20303;-63
2024/04/11 03:51:53;;;;;;;2.30;2.20;;;5.20;99.90;;;;;;5454106;26;20260;-63
2024/04/11 03:54:25;;;;;;;3.30;3.10;;;5.20;99.90;;;;;;5465725;26;20246;-62
2024/04/11 03:56:51;;;;;;;2.27;2.13;;;5.00;99.90;;;;;;5490426;26;20235;-63
2024/04/11 03:59:20;;;;;;;4.03;2.57;;;5.10;99.90;;;;;;5489263;26;20714;-63
2024/04/11 04:01:47;;;;;;;2.40;2.20;;;5.10;99.90;;;;;;5490392;26;20228;-62
2024/04/11 04:04:19;;;;;;;2.27;2.10;;;5.10;99.90;;;;;;5490249;26;20319;-62
2024/04/11 04:06:46;;;;;;;2.20;2.10;;;5.00;99.90;;;;;;5468821;26;20591;-62
2024/04/11 04:09:15;;;;;;;2.47;2.00;;;5.20;99.90;;;;;;5487570;26;20343;-63
2024/04/11 04:11:44;;;;;;;1.77;1.67;;;5.10;99.90;;;;;;5490109;26;20689;-62
2024/04/11 04:14:13;;;;;;;1.97;1.87;;;5.20;99.90;;;;;;5490095;26;20242;-63
2024/04/11 04:16:39;;;;;;;4.37;1.83;;;5.30;99.90;;;;;;5488301;26;20247;-62
2024/04/11 04:19:08;;;;;;;3.03;1.60;;;5.40;99.90;;;;;;5488602;26;20227;-62
2024/04/11 04:21:35;;;;;;;3.53;1.70;;;5.40;99.90;;;;;;5526777;25;20225;-62
2024/04/11 04:24:05;;;;;;;2.43;1.67;;;5.50;99.90;;;;;;5496872;25;20230;-62
2024/04/11 04:26:31;;;;;;;1.80;1.70;;;5.50;99.90;;;;;;5497263;26;20228;-62
2024/04/11 04:29:03;;;;;;;1.80;1.70;;;5.50;99.90;;;;;;5525427;25;20333;-62
2024/04/11 04:31:30;;;;;;;1.27;1.20;;;5.40;99.90;;;;;;5502445;25;20334;-62
2024/04/11 04:34:00;;;;;;;1.03;1.03;;;5.50;99.90;;;;;;5489164;26;20235;-62
2024/04/11 04:36:27;;;;;;;1.77;1.40;;;5.40;99.90;;;;;;5489702;26;20281;-63
2024/04/11 04:38:57;;;;;;;2.03;1.50;;;5.40;99.90;;;;;;5518966;26;20333;-62
2024/04/11 04:41:29;;;;;;;2.53;1.20;;;5.40;99.90;;;;;;5526347;25;20225;-62
2024/04/11 04:43:56;;;;;;;1.33;0.97;;;5.30;99.90;;;;;;5489669;25;20728;-62
2024/04/11 04:46:29;;;;;;;1.20;0.93;;;5.30;99.90;;;;;;5489504;26;20222;-62
2024/04/11 04:48:55;;;;;;;1.50;1.00;;;5.30;99.90;;;;;;5488315;26;20279;-62
2024/04/11 04:51:26;;;;;;;5.70;1.00;;;5.20;99.90;;;;;;5489399;26;20847;-62
2024/04/11 04:53:53;;;;;;;4.87;1.27;;;5.30;99.90;;;;;;5489595;26;20235;-62
2024/04/11 04:56:23;;;;;;;1.30;1.20;;;5.30;99.90;;;;;;5510920;26;20575;-63
2024/04/11 04:58:50;;;;;;;1.23;1.10;;;5.50;99.90;;;;;;5522389;25;20223;-63
2024/04/11 05:01:20;;;;;;;5.13;1.60;;;5.50;99.90;;;;;;5488992;26;20758;-62
2024/04/11 05:03:50;;;;;;;1.63;1.07;;;5.50;99.90;;;;;;5481147;26;20371;-62
2024/04/11 05:06:19;;;;;;;3.03;1.63;;;5.60;99.90;;;;;;5509655;26;20235;-62
2024/04/11 05:08:46;;;;;;;2.67;1.70;;;5.60;99.90;;;;;;5488406;26;20265;-62
2024/04/11 05:11:15;;;;;;;4.13;1.70;;;5.60;99.90;;;;;;5504277;26;20226;-62
2024/04/11 05:13:42;;;;;;;2.93;1.53;;;5.70;99.90;;;;;;5489099;26;20235;-62
2024/04/11 05:16:18;;;;;;;3.47;2.03;;;5.70;99.90;;;;;;5480937;26;20310;-63
2024/04/11 05:18:55;;;;;;;3.73;2.17;;;5.90;99.90;;;;;;5483438;26;20234;-62
2024/04/11 05:21:26;;;;;;;2.40;2.13;;;5.90;99.90;;;;;;5477422;26;20227;-62
2024/04/11 05:23:54;;;;;;;2.17;1.40;;;6.00;99.90;;;;;;5485545;26;20336;-62
2024/04/11 05:26:25;;;;;;;1.67;1.33;;;6.20;99.90;;;;;;5488317;26;20223;-62
2024/04/11 05:28:52;;;;;;;2.60;1.60;;;6.30;99.90;;;;;;5487737;26;20270;-62
2024/04/11 05:31:25;;;;;;;4.00;1.83;;;6.50;99.90;;;;;;5483551;26;20226;-62
2024/04/11 05:33:53;;;;;;;3.37;1.50;;;6.70;99.90;;;;;;5476984;26;20233;-62
2024/04/11 05:36:25;;;;;;;3.80;1.77;;;6.80;99.90;;;;;;5503414;26;20224;-63
2024/04/11 05:38:51;;;;;;;3.37;1.87;;;7.00;99.90;;;;;;5485917;26;20222;-61
2024/04/11 05:41:20;;;;;;;2.17;1.23;;;7.40;99.90;;;;;;5488210;26;20226;-61
2024/04/11 05:43:49;;;;;;;1.17;1.17;;;7.90;99.90;;;;;;5501148;26;20284;-61
2024/04/11 05:46:19;;;;;;;1.57;1.47;;;8.40;99.90;;;;;;5489598;25;20618;-60
2024/04/11 05:48:45;;;;;;;1.80;1.30;;;8.90;99.90;;;;;;5486994;26;20269;-60
2024/04/11 05:51:14;;;;;;;5.93;1.30;;;9.40;99.90;;;;;;5516026;26;20238;-60
2024/04/11 05:53:42;;;;;;;3.73;1.40;;;9.80;99.90;;;;;;5513999;25;20222;-61
2024/04/11 05:56:12;;;;;;;2.13;2.03;;;10.20;99.90;;;;;;5488552;26;20282;-60
2024/04/11 05:58:39;;;;;;;2.07;1.60;;;10.80;99.90;;;;;;5487543;26;20294;-61
2024/04/11 06:01:09;;;;;;;1.93;0.87;;;11.40;99.90;;;;;;5521247;26;20280;-61
2024/04/11 06:03:36;;;;;;;1.47;1.00;;;11.80;99.90;;;;;;5525084;25;20242;-61
2024/04/11 06:06:04;;;;;;;4.90;1.20;;;12.30;99.90;;;;;;5499740;25;20238;-61
2024/04/11 06:08:30;;;;;;;2.20;1.17;;;12.70;99.90;;;;;;5500590;25;20265;-61
2024/04/11 06:11:02;;;;;;;3.20;1.07;;;13.00;99.90;;;;;;5521703;25;20279;-62
2024/04/11 06:13:28;;;;;;;0.60;0.60;;;13.40;99.90;;;;;;5477327;26;20282;-63
2024/04/11 06:15:57;;;;;;;1.27;0.97;;;13.80;99.90;;;;;;5483270;26;20224;-59
2024/04/11 06:18:28;;;;;;;1.40;0.60;;;14.20;99.90;;;;;;5495243;26;20220;-59
2024/04/11 06:20:57;;;;;;;1.37;0.80;;;14.80;99.90;;;;;;5507447;25;20272;-60
2024/04/11 06:23:26;;;;;;;1.87;1.10;;;15.10;99.90;;;;;;5475622;26;20229;-60
2024/04/11 06:25:57;;;;;;;1.57;0.70;;;15.30;99.90;;;;;;5470810;26;20275;-60
2024/04/11 06:28:28;;;;;;;0.80;0.70;;;15.60;99.90;;;;;;5479658;26;20264;-60
2024/04/11 06:30:59;;;;;;;3.73;0.70;;;15.80;99.90;;;;;;5524538;25;20236;-60
2024/04/11 06:33:26;;;;;;;0.50;0.50;;;15.90;99.90;;;;;;5499399;25;20233;-60
2024/04/11 06:35:55;;;;;;;2.10;0.60;;;15.80;99.90;;;;;;5480385;26;20237;-60
2024/04/11 06:38:23;;;;;;;1.07;1.03;;;16.30;99.90;;;;;;5486103;26;20225;-60
2024/04/11 06:40:52;;;;;;;1.67;1.57;;;16.20;99.90;;;;;;5481989;26;20231;-60
2024/04/11 06:43:20;;;;;;;1.23;1.13;;;15.90;99.90;;;;;;5486145;26;20229;-61
2024/04/11 06:45:54;;;;;;;1.93;1.20;;;16.30;99.90;;;;;;5502267;26;20222;-60
2024/04/11 06:48:21;;;;;;;2.88;1.90;;;16.40;99.90;;;;;;5481368;26;20459;-61
2024/04/11 06:50:50;;;;;;;1.23;1.23;;;16.30;99.90;;;;;;5498829;26;20743;-60
2024/04/11 06:53:17;;;;;;;1.73;1.00;;;16.20;99.90;;;;;;5485460;25;20235;-60
2024/04/11 06:55:46;;;;;;;2.13;1.60;;;16.60;99.90;;;;;;5483924;26;20375;-60
2024/04/11 06:58:12;;;;;;;1.77;1.50;;;16.70;99.90;;;;;;5482596;26;20271;-60
2024/04/11 07:00:41;;;;;;;1.83;1.73;;;16.20;99.90;;;;;;5510260;25;20275;-58
2024/04/11 07:03:16;;;;;;;3.60;3.00;;;16.40;99.90;;;;;;5489193;26;20271;-59
2024/04/11 07:05:55;;;;;;;3.00;2.80;;;16.10;99.90;;;;;;5511553;25;20312;-57
2024/04/11 07:08:29;;;;;;;2.43;2.23;;;15.00;99.90;;;;;;5482536;25;20220;-58
2024/04/11 07:10:58;;;;;;;4.03;2.67;;;14.50;99.90;;;;;;5495272;25;22297;-59
2024/04/11 07:13:26;;;;;;;3.63;3.17;;;15.10;99.90;;;;;;5488357;26;20232;-62
2024/04/11 07:15:58;;;;;;;2.93;2.70;;;15.70;99.90;;;;;;5501793;25;20325;-59
2024/04/11 07:18:44;;;;;;;4.20;3.23;;;15.70;99.90;;;;;;5473379;26;20228;-58
2024/04/11 07:21:13;;;;;;;4.37;4.07;;;16.50;99.90;;;;;;5488426;26;20336;-60
2024/04/11 07:23:44;;;;;;;4.17;3.80;;;16.70;99.90;;;;;;5480877;26;20263;-60
2024/04/11 07:26:12;;;;;;;3.23;3.07;;;16.60;99.90;;;;;;5487876;26;20268;-59
2024/04/11 07:28:44;;;;;;;4.03;3.07;;;15.80;99.90;;;;;;5477545;26;20284;-60
2024/04/11 07:31:12;;;;;;;3.27;2.90;;;16.70;99.90;;;;;;5484869;26;20228;-60
2024/04/11 07:33:48;;;;;;;2.67;2.33;;;17.40;99.90;;;;;;5472751;26;20241;-60
2024/04/11 07:36:16;;;;;;;2.80;2.70;;;17.80;99.90;;;;;;5500593;26;20276;-60
2024/04/11 07:38:47;;;;;;;4.10;3.27;;;18.60;99.90;;;;;;5474214;26;20335;-60
2024/04/11 07:41:16;;;;;;;2.53;2.43;;;19.00;99.90;;;;;;5495378;26;20331;-60
2024/04/11 07:43:49;;;;;;;4.07;2.40;;;19.00;99.90;;;;;;5501019;26;22443;-60
2024/04/11 07:46:15;;;;;;;4.03;2.33;;;19.20;99.90;;;;;;5496009;26;20316;-59
2024/04/11 07:48:51;;;;;;;2.33;1.97;;;19.40;99.90;;;;;;5464828;26;20229;-60
2024/04/11 07:51:17;;;;;;;2.50;2.40;;;19.30;99.90;;;;;;5486835;26;20237;-60
2024/04/11 07:53:47;;;;;;;2.10;2.00;;;19.60;99.90;;;;;;5479274;25;20233;-59
2024/04/11 07:56:15;;;;;;;3.30;2.77;;;19.80;99.90;;;;;;5473069;26;20233;-60
2024/04/11 07:58:45;;;;;;;1.80;1.70;;;20.20;99.90;;;;;;5467762;26;20639;-59
2024/04/11 08:01:11;;;;;;;1.93;1.90;;;20.60;99.90;;;;;;5491239;26;20931;-59
2024/04/11 08:03:39;;;;;;;2.33;2.10;;;20.90;99.90;;;;;;5486994;26;20236;-60
2024/04/11 08:06:10;;;;;;;2.10;2.00;;;20.50;99.90;;;;;;5496992;26;20229;-60
2024/04/11 08:08:40;;;;;;;2.27;1.87;;;20.60;99.90;;;;;;5473551;26;20230;-60
2024/04/11 08:11:06;;;;;;;2.03;1.80;;;20.50;99.90;;;;;;5476264;26;20249;-60
2024/04/11 08:13:35;;;;;;;2.53;2.43;;;20.60;99.90;;;;;;5483112;26;20278;-60
2024/04/11 08:16:01;;;;;;;3.00;2.80;;;20.10;99.90;;;;;;5489925;26;20280;-60
2024/04/11 08:18:31;;;;;;;2.77;2.57;;;20.20;99.90;;;;;;5493940;26;20228;-60
2024/04/11 08:20:57;;;;;;;3.27;2.27;;;19.90;99.90;;;;;;5499916;25;20237;-60
2024/04/11 08:23:29;;;;;;;3.27;2.43;;;19.60;99.90;;;;;;5498095;26;20236;-60
2024/04/11 08:25:55;;;;;;;2.80;2.67;;;19.90;99.90;;;;;;5501409;25;20287;-58
2024/04/11 08:28:24;;;;;;;2.37;2.10;;;19.00;99.90;;;;;;5491339;26;20244;-59
2024/04/11 08:30:52;;;;;;;2.67;2.53;;;19.70;99.90;;;;;;5492079;26;20225;-60
2024/04/11 08:33:21;;;;;;;2.10;2.10;;;19.90;99.90;;;;;;5491952;26;20249;-60
2024/04/11 08:35:47;;;;;;;2.83;2.13;;;20.10;99.90;;;;;;5495972;26;20731;-59
2024/04/11 08:38:18;;;;;;;3.90;1.93;;;;;;;;;;5495756;26;20275;-60
2024/04/11 08:40:49;;;;;;;2.60;2.40;;;;;;;;;;5481818;26;20276;-60
2024/04/11 08:43:20;;;;;;;2.30;2.10;;;;;;;;;;5506250;26;20229;-60
2024/04/11 08:45:46;;;;;;;1.73;1.33;;;;;;;;;;5486783;26;20229;-59
2024/04/11 08:48:16;;;;;;;2.20;2.10;;;;;;;;;;5495142;25;20237;-60
2024/04/11 08:50:44;;;;;;;2.33;2.13;;;;;;;;;;5496676;26;20229;-59
2024/04/11 08:53:13;;;;;;;2.70;1.60;;;;;;;;;;5473334;25;20230;-60
2024/04/11 08:55:40;;;;;;;1.60;1.50;;;;;;;;;;5494672;25;20284;-60
2024/04/11 08:58:12;;;;;;;14.43;1.90;;;;;;;;;;5491460;26;20228;-59
2024/04/11 09:00:40;;;;;;;1.70;1.60;;;;;;;;;;5496607;26;20229;-60
2024/04/11 09:03:13;;;;;;;4.83;1.43;;;;;;;;;;5494985;25;21347;-59
2024/04/11 09:05:39;;;;;;;1.80;1.27;;;;;;;;;;5490216;26;20287;-60
2024/04/11 09:08:10;;;;;;;2.13;1.77;;;;;;;;;;5493293;26;20267;-61
2024/04/11 09:10:37;;;;;;;1.27;1.17;;;;;;;;;;5489326;26;20561;-59
2024/04/11 09:13:06;;;;;;;1.23;1.13;;;;;;;;;;5497258;25;20237;-59
2024/04/11 09:15:36;;;;;;;1.47;1.47;;;;;;;;;;5492098;26;20228;-59
2024/04/11 09:18:05;;;;;;;1.47;1.20;;;;;;;;;;5493004;26;20795;-61
2024/04/11 09:20:32;;;;;;;2.90;1.57;;;;;;;;;;5496344;26;20755;-60
2024/04/11 09:23:08;;;;;;;1.37;1.37;;;;;;;;;;5495914;25;20236;-61
2024/04/11 09:25:35;;;;;;;2.50;2.17;;;;;;;;;;5504576;26;20323;-61
2024/04/11 09:28:11;;;;;;;2.63;2.53;;;;;;;;;;5492564;25;20241;-61
2024/04/11 09:30:39;;;;;;;3.63;2.87;;;;;;;;;;5497179;26;20236;-61
2024/04/11 09:33:16;;;;;;;2.93;2.73;;;;;;;;;;5491057;26;20228;-61
2024/04/11 09:35:46;;;;;;;2.40;2.20;;;;;;;;;;5495480;26;20243;-60
2024/04/11 09:38:19;;;;;;;2.87;2.77;;;;;;;;;;5489307;26;20311;-60
2024/04/11 09:40:50;;;;;;;3.00;2.70;;;;;;;;;;5489617;26;20267;-61
2024/04/11 09:43:19;;;;;;;3.40;3.10;;;;;;;;;;5497299;26;20236;-60
2024/04/11 09:45:50;;;;;;;2.80;2.60;;;;;;;;;;5499603;25;20228;-61
2024/04/11 09:48:21;;;;;;;3.07;2.73;;;;;;;;;;5496313;26;20230;-61
2024/04/11 09:50:48;;;;;;;3.20;2.53;;;;;;;;;;5501240;25;20259;-60
2024/04/11 09:53:26;;;;;;;2.53;2.43;;;;;;;;;;5493188;25;20284;-60
2024/04/11 09:55:53;;;;;;;3.53;2.70;;;;;;;;;;5498954;25;20278;-60
2024/04/11 09:58:23;;;;;;;2.73;2.53;;;;;;;;;;5494532;25;20238;-60
2024/04/11 10:01:04;;;;;;;1.60;1.50;;;;;;;;;;5489576;26;20236;-60
2024/04/11 10:03:34;;;;;;;2.00;1.90;;;;;;;;;;5490523;25;20285;-60
2024/04/11 10:06:01;;;;;;;1.93;1.93;;;;;;;;;;5489985;26;20808;-60
2024/04/11 10:08:36;;;;;;;2.23;2.13;;;;;;;;;;5494313;26;20308;-60
2024/04/11 10:11:03;;;;;;;2.13;2.03;;;;;;;;;;5476844;26;20234;-61
2024/04/11 10:13:40;;;;;;;2.50;2.10;;;;;;;;;;5502376;26;20228;-60
2024/04/11 10:16:21;;;;;;;2.50;2.20;;;;;;;;;;5500897;26;20232;-60
2024/04/11 10:19:00;;;;;;;2.83;2.63;;;;;;;;;;5504792;26;20744;-61
2024/04/11 10:21:27;;;;;;;2.07;1.90;;;;;;;;;;5493059;26;20314;-61
2024/04/11 10:23:56;;;;;;;3.30;2.20;;;;;;;;;;5493464;26;20283;-60
2024/04/11 10:26:32;;;;;;;3.27;2.37;;;;;;;;;;5487069;26;20271;-60
2024/04/11 10:29:01;;;;;;;1.37;1.30;;;;;;;;;;5489989;26;20767;-60
2024/04/11 10:31:33;;;;;;;1.53;1.53;;;;;;;;;;5493086;26;20744;-61
2024/04/11 10:34:10;;;;;;;1.10;1.10;;;;;;;;;;5493648;25;20372;-61
2024/04/11 10:36:37;;;;;;;1.70;1.60;;;;;;;;;;5494356;26;20228;-61
2024/04/11 10:39:08;;;;;;;2.37;1.10;;;;;;;;;;5491363;25;20250;-61
2024/04/11 10:41:34;;;;;;;1.87;1.30;;;;;;;;;;5491521;26;20232;-60
2024/04/11 10:44:05;;;;;;;1.20;1.10;;;;;;;;;;5497627;25;20270;-61
2024/04/11 10:46:34;;;;;;;1.73;1.63;;;;;;;;;;5496394;26;20300;-61
2024/04/11 10:49:12;;;;;;;1.10;1.10;;;;;;;;;;5493760;26;20351;-60
2024/04/11 10:51:38;;;;;;;1.97;1.10;;;;;;;;;;5500327;26;20240;-60
2024/04/11 10:54:11;;;;;;;0.80;0.80;;;;;;;;;;5495713;25;20248;-60
2024/04/11 10:56:41;;;;;;;3.80;1.67;;;;;;;;;;5493338;26;20236;-60
2024/04/11 10:59:17;;;;;;;1.43;1.10;;;;;;;;;;5479777;26;20298;-60
2024/04/11 11:01:50;;;;;;;1.20;1.00;;;;;;;;;;5493294;26;20381;-61
2024/04/11 11:04:25;;;;;;;1.93;1.10;;;;;;;;;;5487811;26;20740;-67
2024/04/11 11:06:54;;;;;;;1.00;0.90;;;;;;;;;;5495224;26;20561;-66
2024/04/11 11:09:25;;;;;;;1.07;0.93;;;;;;;;;;5487062;26;20234;-66
2024/04/11 11:11:54;;;;;;;0.80;0.80;;;;;;;;;;5493162;26;20343;-66
2024/04/11 11:14:25;;;;;;;2.70;1.07;;;;;;;;;;5494018;26;20366;-66
2024/04/11 11:16:57;;;;;;;1.80;0.73;;;;;;;;;;5497617;26;20241;-63
2024/04/11 11:19:30;;;;;;;1.67;1.10;;;;;;;;;;5502978;25;20589;-62
2024/04/11 11:21:59;;;;;;;1.07;1.07;;;;;;;;;;5494389;26;20279;-61
2024/04/11 11:24:28;;;;;;;0.73;0.73;;;;;;;;;;5497284;26;20272;-60
2024/04/11 11:26:55;;;;;;;0.90;0.83;;;;;;;;;;5492940;25;20228;-60
2024/04/11 11:29:26;;;;;;;0.63;0.50;;;;;;;;;;5488708;26;20241;-60
2024/04/11 11:32:01;;;;;;;1.10;1.10;;;;;;;;;;5498171;26;20751;-63
2024/04/11 11:34:31;;;;;;;0.87;0.80;;;;;;;;;;5500490;25;20351;-60
2024/04/11 11:37:00;;;;;;;0.73;0.70;;;;;;;;;;5496685;25;20232;-60
2024/04/11 11:39:33;;;;;;;2.20;1.00;;;;;;;;;;5489741;26;20267;-61
2024/04/11 11:42:08;;;;;;;1.23;1.00;;;;;;;;;;5498469;25;20787;-63
2024/04/11 11:44:45;;;;;;;1.63;1.33;;;;;;;;;;5494745;26;20244;-64
2024/04/11 11:47:14;;;;;;;3.07;1.20;;;;;;;;;;5492863;26;20249;-64
2024/04/11 11:49:43;;;;;;;0.40;0.40;;;;;;;;;;5496733;25;20262;-63
2024/04/11 11:52:13;;;;;;;1.20;0.73;;;;;;;;;;5491296;25;20238;-63
2024/04/11 11:54:43;;;;;;;1.63;1.03;;;;;;;;;;5492720;26;20743;-64
2024/04/11 11:57:17;;;;;;;1.30;0.43;;;;;;;;;;5486590;25;20275;-64
2024/04/11 11:59:47;;;;;;;1.30;1.20;;;;;;;;;;5485024;26;20334;-64
2024/04/11 12:02:16;;;;;;;2.47;0.70;;;;;;;;;;5479461;26;20268;-63
2024/04/11 12:04:45;;;;;;;1.03;1.03;;;;;;;;;;5484001;26;20370;-62
2024/04/11 12:07:12;;;;;;;1.87;1.10;;;;;;;;;;5497295;26;20751;-61
2024/04/11 12:09:43;;;;;;;1.07;1.07;;;;;;;;;;5486747;26;20276;-69
2024/04/11 12:12:20;;;;;;;0.70;0.70;;;;;;;;;;5493107;26;20263;-69
2024/04/11 12:14:54;;;;;;;1.03;0.90;;;;;;;;;;5490735;26;20240;-64
2024/04/11 12:17:24;;;;;;;0.50;0.40;;;;;;;;;;5492768;26;20348;-62
2024/04/11 12:19:53;;;;;;;2.23;0.77;;;;;;;;;;5476192;26;20280;-62
2024/04/11 12:22:20;;;;;;;1.47;0.57;;;;;;;;;;5475927;26;20269;-69
2024/04/11 12:24:50;;;;;;;0.50;0.50;;;;;;;;;;5464703;26;20836;-68
2024/04/11 12:27:21;;;;;;;0.60;0.60;;;;;;;;;;5489900;26;20238;-63
2024/04/11 12:29:50;;;;;;;0.37;0.37;;;;;;;;;;5490921;25;20229;-63
2024/04/11 12:32:18;;;;;;;0.77;0.50;;;;;;;;;;5482815;26;20308;-62
2024/04/11 12:34:49;;;;;;;1.43;0.40;;;;;;;;;;5496574;26;20349;-62
2024/04/11 12:37:16;;;;;;;0.57;0.53;;;;;;;;;;5494639;25;20229;-61
2024/04/11 12:39:45;;;;;;;0.63;0.47;;;;;;;;;;5490099;25;20233;-62
2024/04/11 12:42:17;;;;;;;0.87;0.40;;;;;;;;;;5471307;26;20234;-62
2024/04/11 12:44:46;;;;;;;1.63;0.90;;;;;;;;;;5483658;26;20764;-62
2024/04/11 12:47:22;;;;;;;0.43;0.43;;;;;;;;;;5486221;26;20245;-63
2024/04/11 12:49:58;;;;;;;1.50;0.53;;;;;;;;;;5472536;26;20749;-62
2024/04/11 12:52:24;;;;;;;1.23;0.40;;;;;;;;;;5478848;26;20241;-61
2024/04/11 12:54:58;;;;;;;0.70;0.60;;;;;;;;;;5495177;26;20316;-61
2024/04/11 12:57:28;;;;;;;0.93;0.50;;;17.20;99.90;;;;;;5485013;25;20240;-62
2024/04/11 13:00:07;;;;;;;1.10;0.43;;;16.90;99.90;;;;;;5493280;26;20232;-61
2024/04/11 13:02:34;;;;;;;1.63;1.00;;;16.80;99.90;;;;;;5493103;26;20245;-62
2024/04/11 13:05:13;;;;;;;0.60;0.60;;;16.90;99.90;;;;;;5488374;26;20814;-61
2024/04/11 13:07:42;;;;;;;3.07;0.77;;;16.70;99.90;;;;;;5476242;26;20242;-62
2024/04/11 13:10:11;;;;;;;4.47;1.17;;;16.60;99.90;;;;;;5477277;26;20361;-62
2024/04/11 13:12:43;;;;;;;3.17;1.10;;;16.70;99.90;;;;;;5487940;26;20241;-62
2024/04/11 13:15:19;;;;;;;2.93;1.40;;;16.80;99.90;;;;;;5498754;26;20287;-61
2024/04/11 13:17:52;;;;;;;1.03;0.90;;;17.00;99.90;;;;;;5482256;26;20278;-61
2024/04/11 13:20:27;;;;;;;1.07;1.00;;;16.70;99.90;;;;;;5491943;25;20552;-61
2024/04/11 13:23:09;;;;;;;2.13;1.50;;;16.70;99.90;;;;;;5496501;26;20224;-61
2024/04/11 13:25:38;;;;;;;1.90;1.33;;;16.90;99.90;;;;;;5497298;25;20271;-62
2024/04/11 13:28:05;;;;;;;2.67;1.00;;;17.00;99.90;;;;;;5488365;26;20233;-61
2024/04/11 13:30:37;;;;;;;0.97;0.80;;;16.90;99.90;;;;;;5496121;25;20279;-62
2024/04/11 13:33:03;;;;;;;1.90;1.20;;;16.90;99.90;;;;;;5487897;26;20234;-62
2024/04/11 13:35:48;;;;;;;0.73;0.73;;;17.00;99.90;;;;;;5480965;26;20230;-62
2024/04/11 13:38:17;;;;;;;1.10;1.10;;;17.10;99.90;;;;;;5497577;26;20228;-62